Latest Coastal Weather Observations for Cape Bruny AWS

IDT60701

Issued at 11:42 am EDT Tuesday 2 March 2021 (issued every 10 minutes, with the page automatically refreshed every 10 minutes)

About coastal observations | Map of coastal stations | Coastal observations for TAS | Marine services | Other Formats
Station Details ID: 094198 Name: CAPE BRUNY (CAPE BRUNY) Lat: -43.49 Lon: 147.14 Height: 59.7 m
Data from the previous 72 hours. | See also: Recent months at Cape Bruny AWS
Date/Time
EDT
Wind Sea
Height
m
Swell Vis
km
Cloud Weather Temp
°C
Press
MSL
hPa
Rain since
9am
mm
Dir  Spd
kts
Gust
kts
Height
m
Period
s
Dir
02/11:33am SW 20 31 - - - - - - - 12.9 1013.8 0.0
02/11:30am SW 20 29 - - - - - - - 13.4 1013.9 0.0
02/11:00am SW 21 33 - - - - - - - 13.2 1013.6 0.0
02/10:30am SW 22 30 - - - - - - - 12.8 1013.5 0.0
02/10:00am SW 20 30 - - - - - - - 11.2 1013.4 0.0
02/09:30am SW 22 33 - - - - - - - 11.3 1013.0 0.0
02/09:00am SW 22 33 - - - - - - Recent precip. 11.1 1012.9 17.6
02/08:36am SW 22 34 - - - - - - - 10.4 1012.5 17.6
02/08:30am SW 23 31 - - - - - - - 9.7 1012.4 17.6
02/08:00am WSW 25 36 - - - - - - - 10.8 1011.7 17.4
02/07:39am SW 24 37 - - - - - - - 10.9 1011.3 17.4
02/07:30am SW 22 30 - - - - - - - 10.6 1011.3 17.4
02/07:00am SW 25 36 - - - - - - - 10.2 1011.0 17.4
02/06:30am SW 22 33 - - - - - - - 10.5 1011.0 17.2
02/06:04am WSW 27 37 - - - - - - - 10.4 1010.3 17.2
02/06:00am WSW 29 37 - - - - - - - 10.5 1010.2 17.2
02/05:30am WSW 25 35 - - - - - - - 11.2 1009.8 17.2
02/05:05am SW 22 32 - - - - - - - 10.9 1009.7 17.2
02/05:00am SW 24 33 - - - - - - - 11.0 1009.7 17.2
02/04:31am SW 29 42 - - - - - - - 10.6 1009.3 17.2
02/04:30am SW 28 37 - - - - - - - 10.9 1009.2 17.2
02/04:25am SW 30 40 - - - - - - - 10.6 1009.3 17.2
02/04:18am SW 27 40 - - - - - - - 10.3 1009.3 17.2
02/04:00am SW 23 34 - - - - - - - 11.0 1009.0 17.2
02/03:30am SW 25 36 - - - - - - - 11.0 1008.6 17.2
02/03:00am SW 30 41 - - - - - - - 11.5 1008.1 17.0
02/02:30am SW 32 45 - - - - - - - 11.9 1007.7 17.0
02/02:00am SW 30 42 - - - - - - - 11.6 1007.4 17.0
02/01:30am SW 32 43 - - - - - - - 11.6 1006.9 17.0
02/01:00am SW 35 48 - - - - - - - 11.3 1006.4 17.0
02/12:30am SW 33 49 - - - - - - - 11.2 1005.3 17.0
02/12:00am SW 34 50 - - - - - - Rain 11.5 1004.9 15.0
 
Date/Time
EDT
Wind Sea
Height
m
Swell Vis
km
Cloud Weather Temp
°C
Press
MSL
hPa
Rain since
9am
mm
Dir  Spd
kts
Gust
kts
Height
m
Period
s
Dir
01/11:30pm SW 31 42 - - - - - - - 12.3 1004.3 12.6
01/11:24pm SW 31 42 - - - - - - - 12.1 1004.3 12.6
01/11:20pm SW 29 41 - - - - - - - 11.9 1004.3 12.4
01/11:03pm SW 23 35 - - - - - - - 12.7 1003.9 11.8
01/11:00pm SW 22 30 - - - - - - - 12.5 1003.8 11.8
01/10:30pm SW 27 37 - - - - - - - 11.7 1003.5 11.8
01/10:00pm SW 17 29 - - - - - - - 12.0 1003.3 11.6
01/09:33pm SW 23 33 - - - - - - - 11.4 1002.8 11.6
01/09:30pm SW 26 33 - - - - - - - 11.2 1002.8 11.6
01/09:04pm SW 21 31 - - - - - - - 11.6 1002.0 7.6
01/09:00pm SW 22 31 - - - - - - - 12.0 1002.0 7.4
01/08:57pm SW 23 31 - - - - - - - 11.9 1001.9 7.4
01/08:30pm WSW 23 29 - - - - - - - 12.3 1001.1 7.4
01/08:04pm W 22 34 - - - - - - - 12.2 1001.0 7.4
01/08:00pm W 23 29 - - - - - - - 11.7 1001.0 7.4
01/07:43pm W 28 38 - - - - - - - 11.9 1000.8 7.0
01/07:30pm W 28 36 - - - - - - - 11.7 1000.8 7.0
01/07:22pm W 27 36 - - - - - - - 11.6 1000.7 7.0
01/07:01pm W 20 30 - - - - - - - 11.4 1001.2 6.8
01/07:00pm W 20 26 - - - - - - - 11.4 1001.1 6.8
01/06:30pm W 17 24 - - - - - - - 11.7 1001.3 6.8
01/06:00pm W 19 25 - - - - - - - 12.0 1001.3 6.8
01/05:30pm WSW 20 26 - - - - - - - 11.8 1000.6 6.8
01/05:02pm WSW 25 35 - - - - - - - 11.6 1000.7 6.8
01/05:00pm WSW 26 35 - - - - - - - 11.5 1000.8 6.8
01/04:40pm WSW 25 35 - - - - - - - 11.3 1001.1 6.8
01/04:30pm WSW 24 31 - - - - - - - 11.8 1001.1 6.8
01/04:00pm WSW 28 35 - - - - - - - 11.4 1001.3 5.8
01/03:35pm WSW 26 36 - - - - - - - 12.2 1001.3 4.2
01/03:30pm WSW 27 33 - - - - - - - 12.3 1001.4 3.8
01/03:00pm WSW 22 29 - - - - - - Rain 13.2 1001.2 0.6
01/02:47pm WSW 20 27 - - - - - - - 13.5 1001.2 0.4
01/02:30pm SW 13 17 - - - - - - - 14.1 1001.5 0.4
01/02:00pm SW 9 13 - - - - - - - 15.5 1001.8 0.0
01/01:30pm S 8 11 - - - - - - - 15.7 1002.4 0.0
01/01:00pm E 4 7 - - - - - - - 17.1 1002.8 0.0
01/12:30pm ESE 5 7 - - - - - - - 17.5 1003.4 0.0
01/12:00pm WNW 4 7 - - - - - - - 18.8 1003.9 0.0
01/11:30am W 4 7 - - - - - - - 17.8 1004.5 0.0
01/11:00am W 6 9 - - - - - - - 17.0 1005.0 0.0
01/10:30am W 5 6 - - - - - - - 17.0 1005.0 0.0
01/10:00am W 3 5 - - - - - - - 15.2 1005.3 0.0
01/09:30am W 7 8 - - - - - - - 15.0 1005.8 0.0
01/09:00am WSW 6 7 - - - - - - - 14.4 1005.9 0.0
01/08:30am W 4 6 - - - - - - - 14.5 1006.0 0.0
01/08:00am SW 4 5 - - - - - - - 14.3 1006.1 0.0
01/07:30am WSW 6 7 - - - - - - - 14.4 1006.3 0.0
01/07:00am SW 8 11 - - - - - - - 14.5 1006.3 0.0
01/06:30am SW 5 6 - - - - - - - 14.1 1006.4 0.0
01/06:00am NW 5 7 - - - - - - - 14.3 1006.4 0.0
01/05:30am NW 6 9 - - - - - - - 14.2 1006.4 0.0
01/05:00am NNW 8 9 - - - - - - - 14.5 1006.6 0.0
01/04:30am NNW 8 10 - - - - - - - 14.4 1006.8 0.0
01/04:00am N 7 10 - - - - - - - 14.5 1007.1 0.0
01/03:30am CALM 0 0 - - - - - - - 14.6 1007.3 0.0
01/03:00am N 1 4 - - - - - - - 14.8 1007.6 0.0
01/02:30am N 7 9 - - - - - - - 14.8 1008.0 0.0
01/02:00am N 4 6 - - - - - - - 14.7 1008.4 0.0
01/01:30am N 4 5 - - - - - - - 14.4 1008.7 0.0
01/01:00am CALM 0 0 - - - - - - - 14.3 1009.1 0.0
01/12:30am N 1 3 - - - - - - - 14.3 1009.5 0.0
01/12:00am N 4 4 - - - - - - - 14.2 1009.9 0.0
 
Date/Time
EDT
Wind Sea
Height
m
Swell Vis
km
Cloud Weather Temp
°C
Press
MSL
hPa
Rain since
9am
mm
Dir  Spd
kts
Gust
kts
Height
m
Period
s
Dir
28/11:30pm NNE 3 4 - - - - - - - 14.1 1010.2 0.0
28/11:00pm CALM 0 0 - - - - - - - 14.2 1010.5 0.0
28/10:30pm NNE 3 4 - - - - - - - 14.2 1010.7 0.0
28/10:00pm N 5 5 - - - - - - - 14.2 1011.0 0.0
28/09:30pm NE 3 4 - - - - - - - 14.5 1011.2 0.0
28/09:00pm E 7 9 - - - - - - - 14.7 1011.1 0.0
28/08:30pm ESE 9 11 - - - - - - - 14.7 1010.9 0.0
28/08:00pm ESE 10 12 - - - - - - - 14.9 1011.0 0.0
28/07:30pm ESE 9 11 - - - - - - - 15.1 1011.0 0.0
28/07:00pm ESE 10 12 - - - - - - - 15.1 1011.0 0.0
28/06:30pm ESE 10 12 - - - - - - - 15.8 1010.9 0.0
28/06:00pm ESE 9 12 - - - - - - - 16.1 1011.0 0.0
28/05:30pm SE 6 11 - - - - - - - 17.0 1011.1 0.0
28/05:00pm SE 9 13 - - - - - - - 18.2 1011.1 0.0
28/04:30pm ESE 10 14 - - - - - - - 17.6 1011.2 0.0
28/04:00pm SE 9 13 - - - - - - - 17.3 1011.2 0.0
28/03:30pm SSE 9 14 - - - - - - - 18.1 1011.3 0.0
28/03:00pm SSE 10 13 - - - - - - - 17.6 1011.7 0.0
28/02:30pm SSE 10 13 - - - - - - - 18.0 1012.0 0.0
28/02:00pm SSE 8 13 - - - - - - - 18.5 1012.3 0.0
28/01:30pm S 9 11 - - - - - - - 18.1 1012.3 0.0
28/01:00pm SE 8 11 - - - - - - - 19.0 1012.5 0.0
28/12:30pm ESE 8 11 - - - - - - - 17.7 1012.6 0.0
28/12:00pm SSE 5 7 - - - - - - - 17.0 1012.9 0.0
28/11:30am SSW 4 5 - - - - - - - 16.7 1013.1 0.0
28/11:00am N 4 6 - - - - - - - 17.5 1013.1 0.0
28/10:30am NE 4 7 - - - - - - - 16.5 1013.3 0.0
28/10:00am NE 3 6 - - - - - - - 15.2 1013.4 0.0
28/09:30am NNE 5 8 - - - - - - - 15.3 1013.5 0.0
28/09:00am NNE 6 8 - - - - - - - 14.5 1013.5 0.0
28/08:30am W 5 6 - - - - - - - 12.9 1013.7 0.0
28/08:00am NW 5 6 - - - - - - - 12.4 1013.6 0.0
28/07:30am N 5 6 - - - - - - - 11.7 1013.3 0.0
28/07:00am ENE 3 4 - - - - - - - 10.6 1013.1 0.0
28/06:30am N 3 4 - - - - - - - 11.2 1013.2 0.0
28/06:00am NNE 4 4 - - - - - - - 10.9 1013.0 0.0
28/05:30am N 5 6 - - - - - - - 10.7 1013.0 0.0
28/05:00am NNE 5 6 - - - - - - - 11.0 1013.0 0.0
28/04:30am N 6 7 - - - - - - - 10.7 1013.2 0.0
28/04:00am NW 6 6 - - - - - - - 11.2 1013.4 0.0
28/03:30am WNW 3 4 - - - - - - - 11.3 1013.3 0.0
28/03:00am N 3 4 - - - - - - - 11.6 1013.4 0.0
28/02:30am NNE 3 4 - - - - - - - 11.5 1013.5 0.0
28/02:00am N 3 4 - - - - - - - 11.8 1013.9 0.0
28/01:30am CALM 0 0 - - - - - - - 11.7 1014.0 0.0
28/01:00am N 3 4 - - - - - - - 11.6 1014.0 0.0
28/12:30am N 3 4 - - - - - - - 11.9 1014.2 0.0
28/12:00am NNE 1 4 - - - - - - - 12.0 1014.4 0.0
 
Date/Time
EDT
Wind Sea
Height
m
Swell Vis
km
Cloud Weather Temp
°C
Press
MSL
hPa
Rain since
9am
mm
Dir  Spd
kts
Gust
kts
Height
m
Period
s
Dir
27/11:30pm NNE 3 4 - - - - - - - 12.0 1014.5 0.0
27/11:00pm N 4 4 - - - - - - - 12.2 1014.7 0.0
27/10:30pm NNE 5 6 - - - - - - - 12.4 1014.8 0.0
27/10:00pm NE 4 5 - - - - - - - 12.2 1015.1 0.0
27/09:30pm N 5 6 - - - - - - - 12.1 1015.3 0.0
27/09:00pm NE 3 5 - - - - - - - 12.9 1015.0 0.0
27/08:30pm E 7 9 - - - - - - - 13.2 1014.8 0.0
27/08:00pm ESE 8 11 - - - - - - - 13.5 1014.5 0.0
27/07:30pm ESE 10 11 - - - - - - - 13.6 1014.3 0.0
27/07:00pm ESE 10 12 - - - - - - - 13.8 1014.1 0.0
27/06:30pm ESE 11 13 - - - - - - - 14.2 1013.9 0.0
27/06:00pm ESE 9 12 - - - - - - - 14.8 1013.9 0.0
27/05:30pm ESE 10 13 - - - - - - - 15.3 1014.0 0.0
27/05:00pm ESE 10 13 - - - - - - - 15.0 1014.1 0.0
27/04:30pm ESE 10 15 - - - - - - - 14.8 1013.9 0.0
27/04:00pm ESE 11 16 - - - - - - - 16.1 1014.1 0.0
27/03:30pm ESE 11 15 - - - - - - - 16.0 1014.1 0.0
27/03:00pm ESE 11 14 - - - - - - - 17.0 1014.1 0.0
27/02:30pm ESE 11 14 - - - - - - - 16.6 1014.7 0.0
27/02:00pm ESE 10 12 - - - - - - - 16.1 1015.1 0.0
27/01:30pm ESE 8 10 - - - - - - - 15.7 1015.2 0.0
27/01:00pm ESE 8 11 - - - - - - - 15.9 1015.2 0.0
27/12:30pm ESE 6 10 - - - - - - - 14.9 1015.6 0.0
27/12:00pm ESE 7 9 - - - - - - - 14.6 1015.9 0.0

Other formats

Comma delimited format used in spreadsheet applications
http://www.bom.gov.au/fwo/IDT60701/IDT60701.95967.axf

JavaScript Object Notation format (JSON) in row-major order
http://www.bom.gov.au/fwo/IDT60701/IDT60701.95967.json

Data quality

Most of these data are generated automatically and are frequently updated. Quality checks on data are not normally performed. It is possible for incorrect values to appear. Refer to information at About Latest Weather Observations and please check the disclaimer before using these data.